createdAt,value
2018-12-14T00:00:39.845Z,0.40
2018-12-14T00:03:08.051Z,0.40
2018-12-14T00:05:36.311Z,0.30
2018-12-14T00:08:04.449Z,0.40
2018-12-14T00:10:32.686Z,0.40
2018-12-14T00:13:00.937Z,0.40
2018-12-14T00:15:29.196Z,0.50
2018-12-14T00:17:57.392Z,0.50
2018-12-14T00:20:25.601Z,0.50
2018-12-14T00:22:53.740Z,0.50
2018-12-14T00:25:22.261Z,0.50
2018-12-14T00:27:50.395Z,0.40
2018-12-14T00:30:18.538Z,0.50
2018-12-14T00:32:46.668Z,0.50
2018-12-14T00:35:14.985Z,0.30
2018-12-14T00:37:43.119Z,0.30
2018-12-14T00:40:11.248Z,0.40
2018-12-14T00:42:39.397Z,0.40
2018-12-14T00:45:07.635Z,0.40
2018-12-14T00:47:35.901Z,0.30
2018-12-14T00:50:04.514Z,0.40
2018-12-14T00:52:32.658Z,0.40
2018-12-14T00:55:00.780Z,0.40
2018-12-14T00:57:28.939Z,0.30
2018-12-14T00:59:57.056Z,0.20
2018-12-14T01:02:29.265Z,0.20
2018-12-14T01:04:57.825Z,0.20
2018-12-14T01:07:26.052Z,0.20
2018-12-14T01:09:54.269Z,0.20
2018-12-14T01:12:22.400Z,0.20
2018-12-14T01:14:50.637Z,0.20
2018-12-14T01:17:18.763Z,0.30
2018-12-14T01:19:46.964Z,0.40
2018-12-14T01:22:15.176Z,0.40
2018-12-14T01:24:43.318Z,0.30
2018-12-14T01:27:11.603Z,0.30
2018-12-14T01:29:39.804Z,0.30
2018-12-14T01:32:08.240Z,0.40
2018-12-14T01:34:36.546Z,0.30
2018-12-14T01:37:04.768Z,0.30
2018-12-14T01:39:32.979Z,0.30
2018-12-14T01:42:04.792Z,0.30
2018-12-14T01:44:31.236Z,0.30
2018-12-14T01:46:59.366Z,0.30
2018-12-14T01:49:27.592Z,0.30
2018-12-14T01:51:55.962Z,0.40
2018-12-14T01:54:24.185Z,0.30
2018-12-14T01:56:52.371Z,0.40
2018-12-14T01:59:20.582Z,0.40
2018-12-14T02:01:48.708Z,0.30
2018-12-14T02:04:16.928Z,0.30
2018-12-14T02:06:45.238Z,0.20
2018-12-14T02:09:13.374Z,0.20
2018-12-14T02:11:41.531Z,0.30
2018-12-14T02:14:09.687Z,0.30
2018-12-14T02:16:37.902Z,0.30
2018-12-14T02:19:06.041Z,0.10
2018-12-14T02:21:34.270Z,0.10
2018-12-14T02:24:02.424Z,0.10
2018-12-14T02:26:30.578Z,0.20
2018-12-14T02:28:58.720Z,0.20
2018-12-14T02:31:26.862Z,0.20
2018-12-14T02:33:55.032Z,0.20
2018-12-14T02:36:23.271Z,0.30
2018-12-14T02:38:51.389Z,0.30
2018-12-14T02:41:19.610Z,0.30
2018-12-14T02:43:47.810Z,0.40
2018-12-14T02:46:15.952Z,0.40
2018-12-14T02:48:44.084Z,0.30
2018-12-14T02:51:12.222Z,0.30
2018-12-14T02:53:40.345Z,0.30
2018-12-14T02:56:08.506Z,0.30
2018-12-14T02:58:36.722Z,0.10
2018-12-14T03:01:04.835Z,0.20
2018-12-14T03:03:32.981Z,0.20
2018-12-14T03:06:01.229Z,0.20
2018-12-14T03:08:29.455Z,0.20
2018-12-14T03:10:57.660Z,0.20
2018-12-14T03:13:25.817Z,0.30
2018-12-14T03:15:53.963Z,0.30
2018-12-14T03:18:22.110Z,0.30
2018-12-14T03:20:50.250Z,0.30
2018-12-14T03:23:18.383Z,0.20
2018-12-14T03:25:46.788Z,0.20
2018-12-14T03:28:15.035Z,0.20
2018-12-14T03:30:43.474Z,0.20
2018-12-14T03:33:11.832Z,0.20
2018-12-14T03:35:40.043Z,0.20
2018-12-14T03:38:08.335Z,0.20
2018-12-14T03:40:36.471Z,0.20
2018-12-14T03:43:04.773Z,0.10
2018-12-14T03:45:32.994Z,0.10
2018-12-14T03:48:01.124Z,0.10
2018-12-14T03:50:29.436Z,0.20
2018-12-14T03:52:57.570Z,0.20
2018-12-14T03:55:25.710Z,0.30
2018-12-14T03:57:54.425Z,0.20
2018-12-14T04:00:22.642Z,0.20
2018-12-14T04:02:51.447Z,0.10
2018-12-14T04:05:19.660Z,0.10
2018-12-14T04:07:47.797Z,0.10
2018-12-14T04:10:16.010Z,-0.10
2018-12-14T04:12:44.219Z,0.00
2018-12-14T04:15:12.517Z,0.00
2018-12-14T04:17:40.737Z,0.00
2018-12-14T04:20:09.062Z,0.00
2018-12-14T04:22:37.350Z,0.20
2018-12-14T04:25:05.949Z,0.20
2018-12-14T04:27:34.080Z,0.20
2018-12-14T04:30:02.364Z,0.20
2018-12-14T04:32:30.522Z,0.10
2018-12-14T04:34:58.675Z,0.00
2018-12-14T04:37:26.885Z,-0.10
2018-12-14T04:39:55.112Z,0.00
2018-12-14T04:42:23.814Z,0.10
2018-12-14T04:44:51.983Z,0.10
2018-12-14T04:47:20.338Z,0.10
2018-12-14T04:49:48.854Z,0.10
2018-12-14T04:52:17.084Z,0.20
2018-12-14T04:54:45.469Z,0.10
2018-12-14T04:57:14.720Z,0.00
2018-12-14T04:59:42.939Z,0.10
2018-12-14T05:02:11.261Z,0.10
2018-12-14T05:04:39.459Z,0.10
2018-12-14T05:07:07.620Z,0.20
2018-12-14T05:09:35.745Z,0.20
2018-12-14T05:12:04.261Z,0.10
2018-12-14T05:14:32.801Z,0.10
2018-12-14T05:17:01.056Z,0.10
2018-12-14T05:19:29.233Z,0.00
2018-12-14T05:21:57.860Z,0.00
2018-12-14T05:24:26.014Z,0.10
2018-12-14T05:26:55.357Z,0.10
2018-12-14T05:29:23.702Z,0.20
2018-12-14T05:31:51.880Z,0.20
2018-12-14T05:34:20.049Z,0.20
2018-12-14T05:36:48.264Z,0.20
2018-12-14T05:39:16.390Z,0.10
2018-12-14T05:41:44.623Z,0.10
2018-12-14T05:44:12.752Z,0.20
2018-12-14T05:46:40.890Z,0.20
2018-12-14T05:49:09.134Z,0.20
2018-12-14T05:51:38.169Z,0.20
2018-12-14T05:54:06.283Z,0.20
2018-12-14T05:56:34.819Z,0.20
2018-12-14T05:59:03.028Z,0.20
2018-12-14T06:01:31.190Z,0.30
2018-12-14T06:03:59.586Z,0.30
2018-12-14T06:06:27.791Z,0.20
2018-12-14T06:08:56.000Z,0.20
2018-12-14T06:11:25.677Z,0.20
2018-12-14T06:13:53.817Z,0.20
2018-12-14T06:16:21.957Z,0.20
2018-12-14T06:18:50.120Z,0.20
2018-12-14T06:21:18.268Z,0.10
2018-12-14T06:23:46.410Z,0.10
2018-12-14T06:26:14.564Z,0.10
2018-12-14T06:28:42.813Z,0.10
2018-12-14T06:31:11.023Z,0.20
2018-12-14T06:33:39.190Z,0.20
2018-12-14T06:36:07.377Z,0.20
2018-12-14T06:38:35.545Z,0.30
2018-12-14T06:41:03.826Z,0.30
2018-12-14T06:43:31.982Z,0.30
2018-12-14T06:46:00.107Z,0.40
2018-12-14T06:48:28.253Z,0.30
2018-12-14T06:50:56.866Z,0.40
2018-12-14T06:53:25.008Z,0.40
2018-12-14T06:55:53.137Z,0.40
2018-12-14T06:58:21.386Z,0.30
2018-12-14T07:00:49.596Z,0.40
2018-12-14T07:03:17.736Z,0.40
2018-12-14T07:05:45.898Z,0.40
2018-12-14T07:08:14.041Z,0.40
2018-12-14T07:10:42.172Z,0.30
2018-12-14T07:13:10.353Z,0.20
2018-12-14T07:15:38.492Z,0.30
2018-12-14T07:18:06.814Z,0.30
2018-12-14T07:20:35.072Z,0.30
2018-12-14T07:23:03.224Z,0.40
2018-12-14T07:25:31.355Z,0.30
2018-12-14T07:27:59.598Z,0.30
2018-12-14T07:30:27.863Z,0.30
2018-12-14T07:32:56.003Z,0.30
2018-12-14T07:35:24.255Z,0.30
2018-12-14T07:37:52.410Z,0.40
2018-12-14T07:40:20.562Z,0.40
2018-12-14T07:42:48.701Z,0.30
2018-12-14T07:45:16.924Z,0.30
2018-12-14T07:47:45.052Z,0.30
2018-12-14T07:50:13.304Z,0.30
2018-12-14T07:52:41.532Z,0.30
2018-12-14T07:55:09.800Z,0.30
2018-12-14T07:57:38.025Z,0.30
2018-12-14T08:00:08.083Z,0.20
2018-12-14T08:02:36.689Z,0.30
2018-12-14T08:05:05.899Z,0.40
2018-12-14T08:07:34.181Z,0.30
2018-12-14T08:10:02.558Z,0.30
2018-12-14T08:12:30.757Z,0.30
2018-12-14T08:14:58.917Z,0.30
2018-12-14T08:17:27.317Z,0.40
2018-12-14T08:19:55.593Z,0.40
2018-12-14T08:22:23.728Z,0.40
2018-12-14T08:24:51.888Z,0.30
2018-12-14T08:27:20.068Z,0.30
2018-12-14T08:29:48.344Z,0.30
2018-12-14T08:32:17.329Z,0.30
2018-12-14T08:34:50.930Z,0.30
2018-12-14T08:37:15.772Z,0.30
2018-12-14T08:39:43.962Z,0.30
2018-12-14T08:42:12.092Z,0.40
2018-12-14T08:44:40.320Z,0.30
2018-12-14T08:47:08.618Z,0.30
2018-12-14T08:49:36.781Z,0.40
2018-12-14T08:52:04.937Z,0.40
2018-12-14T08:54:33.201Z,0.50
2018-12-14T08:57:01.390Z,0.40
2018-12-14T08:59:29.536Z,0.40
2018-12-14T09:01:57.800Z,0.40
2018-12-14T09:04:26.000Z,0.30
2018-12-14T09:06:54.144Z,0.40
2018-12-14T09:09:22.318Z,0.40
2018-12-14T09:11:50.495Z,0.40
2018-12-14T09:14:18.624Z,0.40
2018-12-14T09:16:46.857Z,0.40
2018-12-14T09:19:15.076Z,0.40
2018-12-14T09:21:43.221Z,0.40
2018-12-14T09:24:11.378Z,0.40
2018-12-14T09:26:39.606Z,0.40
2018-12-14T09:29:08.176Z,0.40
2018-12-14T09:31:36.501Z,0.40
2018-12-14T09:34:04.721Z,0.50
2018-12-14T09:36:32.877Z,0.50
2018-12-14T09:39:01.017Z,0.50
2018-12-14T09:41:29.212Z,0.50
2018-12-14T09:43:57.358Z,0.50
2018-12-14T09:46:25.510Z,0.50
2018-12-14T09:48:53.657Z,0.60
2018-12-14T09:51:21.864Z,0.60
2018-12-14T09:53:50.163Z,0.50
2018-12-14T09:56:18.397Z,0.50
2018-12-14T09:58:46.559Z,0.40
2018-12-14T10:01:14.765Z,0.50
2018-12-14T10:03:43.318Z,0.50
2018-12-14T10:06:15.723Z,0.50
2018-12-14T10:08:41.629Z,0.60
2018-12-14T10:11:09.862Z,0.60
2018-12-14T10:13:38.119Z,0.70
2018-12-14T10:16:06.792Z,0.60
2018-12-14T10:18:34.915Z,0.60
2018-12-14T10:21:03.273Z,0.70
2018-12-14T10:23:31.418Z,0.80
2018-12-14T10:25:59.596Z,0.80
2018-12-14T10:28:27.806Z,0.80
2018-12-14T10:30:55.948Z,0.80
2018-12-14T10:33:24.094Z,0.70
2018-12-14T10:35:52.299Z,0.80
2018-12-14T10:38:20.461Z,0.70
2018-12-14T10:40:48.586Z,0.80
2018-12-14T10:43:16.737Z,0.70
2018-12-14T10:45:45.279Z,0.70
2018-12-14T10:48:13.437Z,0.60
2018-12-14T10:50:41.658Z,0.70
2018-12-14T10:53:12.093Z,0.70
2018-12-14T10:55:40.790Z,0.70
2018-12-14T10:58:09.108Z,0.80
2018-12-14T11:01:42.776Z,0.80
2018-12-14T11:04:10.933Z,0.90
2018-12-14T11:06:39.708Z,0.90
2018-12-14T11:09:08.076Z,0.90
2018-12-14T11:11:36.227Z,0.90
2018-12-14T11:14:04.481Z,0.90
2018-12-14T11:16:32.700Z,0.90
2018-12-14T11:19:01.003Z,0.80
2018-12-14T11:21:29.163Z,0.80
2018-12-14T11:23:57.394Z,0.80
2018-12-14T11:26:25.687Z,0.80
2018-12-14T11:28:53.874Z,0.80
2018-12-14T11:31:22.017Z,0.80
2018-12-14T11:33:50.177Z,0.70
2018-12-14T11:36:18.382Z,0.70
2018-12-14T11:38:46.536Z,0.70
2018-12-14T11:41:18.480Z,0.70
2018-12-14T11:43:44.913Z,0.70
2018-12-14T11:46:13.070Z,0.80
2018-12-14T11:48:41.270Z,0.80
2018-12-14T11:51:10.960Z,0.80
2018-12-14T11:53:39.135Z,0.60
2018-12-14T11:56:07.268Z,0.60
2018-12-14T11:58:35.412Z,0.70
2018-12-14T12:01:03.700Z,0.70
2018-12-14T12:03:31.880Z,0.60
2018-12-14T12:06:00.030Z,0.70
2018-12-14T12:08:28.248Z,0.70
2018-12-14T12:10:56.410Z,0.70
2018-12-14T12:13:24.582Z,0.80
2018-12-14T12:15:52.721Z,0.80
2018-12-14T12:18:20.933Z,0.90
2018-12-14T12:20:49.080Z,0.90
2018-12-14T12:23:17.247Z,0.90
2018-12-14T12:25:45.397Z,0.90
2018-12-14T12:28:13.549Z,0.90
2018-12-14T12:30:41.685Z,0.80
2018-12-14T12:33:09.853Z,0.80
2018-12-14T12:35:38.004Z,0.80
2018-12-14T12:38:06.229Z,0.80
2018-12-14T12:40:34.372Z,0.80
2018-12-14T12:43:02.509Z,0.80
2018-12-14T12:45:30.746Z,0.90
2018-12-14T12:47:58.888Z,0.90
2018-12-14T12:50:27.126Z,0.80
2018-12-14T12:52:55.258Z,0.90
2018-12-14T12:55:23.402Z,0.90
2018-12-14T12:57:51.555Z,1.00
2018-12-14T13:00:19.710Z,1.00
2018-12-14T13:02:48.014Z,1.00
2018-12-14T13:05:16.316Z,0.80
2018-12-14T13:07:44.616Z,0.90
2018-12-14T13:10:12.790Z,0.90
2018-12-14T13:12:41.236Z,0.90
2018-12-14T13:15:09.520Z,0.90
2018-12-14T13:17:37.691Z,1.00
2018-12-14T13:20:06.106Z,1.00
2018-12-14T13:22:34.235Z,1.00
2018-12-14T13:25:02.529Z,1.00
2018-12-14T13:27:30.673Z,0.90
2018-12-14T13:29:58.844Z,0.90
2018-12-14T13:32:27.119Z,0.90
2018-12-14T13:34:55.266Z,0.90
2018-12-14T13:37:23.391Z,0.90
2018-12-14T13:39:51.639Z,1.00
2018-12-14T13:42:19.758Z,1.00
2018-12-14T13:44:47.982Z,0.90
2018-12-14T13:47:16.196Z,0.90
2018-12-14T13:49:44.426Z,0.80
2018-12-14T13:52:12.605Z,0.80
2018-12-14T13:54:40.891Z,0.90
2018-12-14T13:57:09.106Z,0.90
2018-12-14T13:59:37.330Z,0.90
2018-12-14T14:02:05.533Z,0.80
2018-12-14T14:04:35.879Z,0.70
2018-12-14T14:07:03.904Z,0.70
2018-12-14T14:09:32.234Z,0.80
2018-12-14T14:12:00.422Z,0.80
2018-12-14T14:14:28.649Z,0.80
2018-12-14T14:16:56.917Z,0.80
2018-12-14T14:19:25.786Z,0.80
2018-12-14T14:21:53.977Z,0.80
2018-12-14T14:24:22.169Z,0.80
2018-12-14T14:26:50.379Z,0.80
2018-12-14T14:29:18.546Z,0.80
2018-12-14T14:31:46.748Z,0.80
2018-12-14T14:34:14.954Z,0.90
2018-12-14T14:36:43.179Z,0.80
2018-12-14T14:39:11.400Z,0.80
2018-12-14T14:41:39.558Z,0.90
2018-12-14T14:44:07.691Z,0.80
2018-12-14T14:46:35.876Z,0.90
2018-12-14T14:49:04.154Z,0.80
2018-12-14T14:51:32.582Z,0.90
2018-12-14T14:54:00.723Z,0.90
2018-12-14T14:56:28.870Z,0.90
2018-12-14T14:58:57.014Z,0.80
2018-12-14T15:01:25.152Z,0.70
2018-12-14T15:03:53.324Z,0.80
2018-12-14T15:06:21.481Z,0.70
2018-12-14T15:08:50.196Z,0.70
2018-12-14T15:11:18.348Z,0.60
2018-12-14T15:13:46.606Z,0.60
2018-12-14T15:16:14.759Z,0.60
2018-12-14T15:18:42.930Z,0.60
2018-12-14T15:21:11.044Z,0.50
2018-12-14T15:23:39.202Z,0.40
2018-12-14T15:26:07.431Z,0.40
2018-12-14T15:28:35.736Z,0.50
2018-12-14T15:31:04.045Z,0.50
2018-12-14T15:33:32.232Z,0.40
2018-12-14T15:36:00.386Z,0.50
2018-12-14T15:38:28.521Z,0.50
2018-12-14T15:40:56.674Z,0.40
2018-12-14T15:43:24.867Z,0.40
2018-12-14T15:45:59.709Z,0.40
2018-12-14T15:48:27.849Z,0.50
2018-12-14T15:50:55.998Z,0.50
2018-12-14T15:53:24.204Z,0.40
2018-12-14T15:55:52.378Z,0.40
2018-12-14T15:58:20.516Z,0.40
2018-12-14T16:00:48.746Z,0.40
2018-12-14T16:03:16.953Z,0.40
2018-12-14T16:05:45.093Z,0.40
2018-12-14T16:08:13.291Z,0.30
2018-12-14T16:10:41.445Z,0.30
2018-12-14T16:13:09.591Z,0.30
2018-12-14T16:15:37.810Z,0.30
2018-12-14T16:18:05.967Z,0.30
2018-12-14T16:20:34.209Z,0.30
2018-12-14T16:23:02.400Z,0.30
2018-12-14T16:25:30.656Z,0.30
2018-12-14T16:27:58.796Z,0.30
2018-12-14T16:30:27.008Z,0.30
2018-12-14T16:32:55.230Z,0.30
2018-12-14T16:35:23.366Z,0.30
2018-12-14T16:37:51.529Z,0.20
2018-12-14T16:40:19.742Z,0.30
2018-12-14T16:42:47.893Z,0.10
2018-12-14T16:45:16.852Z,0.20
2018-12-14T16:47:45.002Z,0.20
2018-12-14T16:50:13.134Z,0.30
2018-12-14T16:52:41.285Z,0.30
2018-12-14T16:55:09.493Z,0.30
2018-12-14T16:57:37.701Z,0.30
2018-12-14T17:00:07.181Z,0.20
2018-12-14T17:02:35.436Z,0.10
2018-12-14T17:05:03.730Z,0.10
2018-12-14T17:07:32.056Z,0.10
2018-12-14T17:10:00.305Z,0.10
2018-12-14T17:12:28.513Z,0.10
2018-12-14T17:14:56.729Z,0.10
2018-12-14T17:17:24.882Z,0.00
2018-12-14T17:19:53.009Z,0.00
2018-12-14T17:22:21.172Z,0.00
2018-12-14T17:24:49.301Z,0.00
2018-12-14T17:27:17.518Z,0.00
2018-12-14T17:29:45.737Z,0.00
2018-12-14T17:32:13.917Z,-0.10
2018-12-14T17:34:42.053Z,-0.10
2018-12-14T17:37:10.252Z,-0.10
2018-12-14T17:39:38.482Z,-0.10
2018-12-14T17:42:06.823Z,0.00
2018-12-14T17:44:35.053Z,0.00
2018-12-14T17:47:03.454Z,0.10
2018-12-14T17:49:31.664Z,0.10
2018-12-14T17:51:59.895Z,0.10
2018-12-14T17:54:28.123Z,0.00
2018-12-14T17:56:56.275Z,0.00
2018-12-14T17:59:24.408Z,0.10
2018-12-14T18:01:52.856Z,0.10
2018-12-14T18:04:21.036Z,0.10
2018-12-14T18:06:49.262Z,0.20
2018-12-14T18:09:17.610Z,0.20
2018-12-14T18:11:45.781Z,0.10
2018-12-14T18:14:14.040Z,0.10
2018-12-14T18:16:42.463Z,0.20
2018-12-14T18:19:11.360Z,0.20
2018-12-14T18:21:39.517Z,0.20
2018-12-14T18:24:07.739Z,0.20
2018-12-14T18:26:35.910Z,0.30
2018-12-14T18:29:04.205Z,0.30
2018-12-14T18:31:32.312Z,0.30
2018-12-14T18:34:00.539Z,0.30
2018-12-14T18:36:28.722Z,0.20
2018-12-14T18:38:56.886Z,0.20
2018-12-14T18:41:25.321Z,0.20
2018-12-14T18:43:53.497Z,0.10
2018-12-14T18:46:21.698Z,0.10
2018-12-14T18:48:49.921Z,0.10
2018-12-14T18:51:18.119Z,0.20
2018-12-14T18:53:55.938Z,0.10
2018-12-14T18:56:24.398Z,0.10
2018-12-14T18:58:52.767Z,0.20
2018-12-14T19:01:21.167Z,0.20
2018-12-14T19:03:49.752Z,0.10
2018-12-14T19:06:18.140Z,0.00
2018-12-14T19:08:46.428Z,0.00
2018-12-14T19:11:14.552Z,0.00
2018-12-14T19:13:42.723Z,0.10
2018-12-14T19:16:10.978Z,0.10
2018-12-14T19:18:39.137Z,0.10
2018-12-14T19:21:07.747Z,0.10
2018-12-14T19:23:35.968Z,0.10
2018-12-14T19:26:04.265Z,0.10
2018-12-14T19:28:32.579Z,0.00
2018-12-14T19:31:00.982Z,-0.10
2018-12-14T19:33:29.295Z,-0.10
2018-12-14T19:35:57.619Z,-0.10
2018-12-14T19:38:25.836Z,0.00
2018-12-14T19:40:54.143Z,0.10
2018-12-14T19:43:22.301Z,0.10
2018-12-14T19:45:50.420Z,0.00
2018-12-14T19:48:18.570Z,0.10
2018-12-14T19:50:46.695Z,0.10
2018-12-14T19:53:14.916Z,0.10
2018-12-14T19:55:43.078Z,0.10
2018-12-14T19:58:11.300Z,0.10
2018-12-14T20:00:39.532Z,0.20
2018-12-14T20:03:07.674Z,0.20
2018-12-14T20:05:35.901Z,0.20
2018-12-14T20:08:04.131Z,0.20
2018-12-14T20:10:32.261Z,0.20
2018-12-14T20:13:00.610Z,0.00
2018-12-14T20:15:28.753Z,0.10
2018-12-14T20:17:56.885Z,0.10
2018-12-14T20:20:25.170Z,0.10
2018-12-14T20:22:53.390Z,0.00
2018-12-14T20:25:21.566Z,0.10
2018-12-14T20:27:49.754Z,0.10
2018-12-14T20:30:17.892Z,0.10
2018-12-14T20:32:46.057Z,0.20
2018-12-14T20:35:14.297Z,0.30
2018-12-14T20:37:42.613Z,0.30
2018-12-14T20:40:10.870Z,0.20
2018-12-14T20:42:39.015Z,0.20
2018-12-14T20:45:07.947Z,0.20
2018-12-14T20:47:36.100Z,0.20
2018-12-14T20:50:05.144Z,0.10
2018-12-14T20:52:33.301Z,0.10
2018-12-14T20:55:01.577Z,0.00
2018-12-14T20:57:29.733Z,0.00
2018-12-14T20:59:57.964Z,0.00
2018-12-14T21:02:26.121Z,0.00
2018-12-14T21:04:54.353Z,0.00
2018-12-14T21:07:22.614Z,0.00
2018-12-14T21:09:50.752Z,0.00
2018-12-14T21:12:18.892Z,-0.10
2018-12-14T21:14:50.893Z,-0.10
2018-12-14T21:17:17.218Z,-0.20
2018-12-14T21:19:49.282Z,-0.10
2018-12-14T21:22:17.431Z,-0.10
2018-12-14T21:24:45.559Z,-0.10
2018-12-14T21:27:13.733Z,0.00
2018-12-14T21:29:41.879Z,-0.10
2018-12-14T21:32:10.116Z,-0.10
2018-12-14T21:34:38.268Z,-0.10
2018-12-14T21:37:06.492Z,-0.10
2018-12-14T21:39:34.739Z,0.00
2018-12-14T21:42:09.699Z,0.00
2018-12-14T21:44:37.885Z,-0.10
2018-12-14T21:47:06.126Z,-0.10
2018-12-14T21:49:34.284Z,0.00
2018-12-14T21:52:02.423Z,-0.20
2018-12-14T21:54:30.566Z,-0.10
2018-12-14T21:56:58.718Z,-0.10
2018-12-14T21:59:26.862Z,-0.10
2018-12-14T22:01:55.157Z,-0.20
2018-12-14T22:04:23.299Z,-0.10
2018-12-14T22:06:51.508Z,-0.20
2018-12-14T22:09:19.738Z,-0.10
2018-12-14T22:11:47.902Z,0.00
2018-12-14T22:14:16.045Z,-0.10
2018-12-14T22:16:44.193Z,-0.20
2018-12-14T22:19:12.400Z,-0.20
2018-12-14T22:21:40.624Z,-0.10
2018-12-14T22:24:08.883Z,-0.10
2018-12-14T22:26:37.070Z,-0.10
2018-12-14T22:29:05.325Z,-0.10
2018-12-14T22:31:33.480Z,-0.10
2018-12-14T22:34:01.664Z,-0.10
2018-12-14T22:36:29.902Z,-0.20
2018-12-14T22:38:58.068Z,-0.20
2018-12-14T22:41:26.400Z,-0.20
2018-12-14T22:43:54.555Z,-0.20
2018-12-14T22:46:22.729Z,-0.10
2018-12-14T22:48:50.889Z,-0.10
2018-12-14T22:51:19.035Z,-0.20
2018-12-14T22:53:47.864Z,-0.20
2018-12-14T22:56:16.165Z,-0.30
2018-12-14T22:58:44.296Z,-0.40
2018-12-14T23:01:12.620Z,-0.40
2018-12-14T23:03:40.798Z,-0.40
2018-12-14T23:06:08.945Z,-0.30
2018-12-14T23:08:37.100Z,-0.20
2018-12-14T23:11:05.375Z,-0.10
2018-12-14T23:13:33.632Z,-0.10
2018-12-14T23:16:01.799Z,-0.10
2018-12-14T23:18:30.031Z,-0.10
2018-12-14T23:20:58.197Z,-0.10
2018-12-14T23:23:26.394Z,-0.10
2018-12-14T23:25:54.581Z,-0.10
2018-12-14T23:28:22.845Z,-0.10
2018-12-14T23:30:51.090Z,-0.10
2018-12-14T23:33:19.340Z,-0.20
2018-12-14T23:35:47.524Z,-0.10
2018-12-14T23:38:15.676Z,-0.20
2018-12-14T23:40:43.880Z,-0.20
2018-12-14T23:43:12.018Z,-0.20
2018-12-14T23:45:40.312Z,-0.20
2018-12-14T23:48:08.506Z,-0.20
2018-12-14T23:50:36.701Z,-0.20
2018-12-14T23:53:04.837Z,-0.20
2018-12-14T23:55:33.020Z,-0.20
2018-12-14T23:58:01.192Z,-0.20
